sensor_id;sensor_type;location;lat;lon;timestamp;pressure;altitude;pressure_sealevel;temperature;humidity
76687;BME280;65615;47.378;19.344;2023-07-28T04:07:15;99795.59;;;13.98;100.00
76687;BME280;65615;47.378;19.344;2023-07-28T04:11:18;99791.16;;;14.05;100.00
76687;BME280;65615;47.378;19.344;2023-07-28T04:15:21;99789.59;;;14.10;100.00
76687;BME280;65615;47.378;19.344;2023-07-28T04:19:26;99798.28;;;14.25;100.00
76687;BME280;65615;47.378;19.344;2023-07-28T04:23:31;99793.19;;;14.52;100.00
76687;BME280;65615;47.378;19.344;2023-07-28T04:27:34;99800.19;;;14.59;100.00
76687;BME280;65615;47.378;19.344;2023-07-28T04:31:38;99780.66;;;14.73;100.00
76687;BME280;65615;47.378;19.344;2023-07-28T04:35:41;99790.91;;;14.76;100.00
76687;BME280;65615;47.378;19.344;2023-07-28T04:39:45;99792.69;;;15.03;100.00
76687;BME280;65615;47.378;19.344;2023-07-28T04:43:49;99801.22;;;15.26;100.00
76687;BME280;65615;47.378;19.344;2023-07-28T04:47:52;99802.34;;;15.52;100.00
76687;BME280;65615;47.378;19.344;2023-07-28T04:51:58;99810.59;;;15.70;100.00
76687;BME280;65615;47.378;19.344;2023-07-28T04:56:02;99809.03;;;15.95;100.00
76687;BME280;65615;47.378;19.344;2023-07-28T05:00:06;99811.69;;;15.95;100.00
76687;BME280;65615;47.378;19.344;2023-07-28T05:04:13;99804.09;;;15.92;100.00
76687;BME280;65615;47.378;19.344;2023-07-28T05:08:16;99790.38;;;16.08;100.00
76687;BME280;65615;47.378;19.344;2023-07-28T05:12:19;99785.06;;;16.21;100.00
76687;BME280;65615;47.378;19.344;2023-07-28T05:16:23;99781.97;;;16.37;100.00
76687;BME280;65615;47.378;19.344;2023-07-28T05:20:29;99775.41;;;16.46;100.00
76687;BME280;65615;47.378;19.344;2023-07-28T05:24:36;99776.00;;;16.48;100.00
76687;BME280;65615;47.378;19.344;2023-07-28T05:28:39;99768.88;;;16.55;100.00
76687;BME280;65615;47.378;19.344;2023-07-28T05:32:42;99780.75;;;16.53;100.00
76687;BME280;65615;47.378;19.344;2023-07-28T05:36:45;99780.56;;;16.61;100.00
76687;BME280;65615;47.378;19.344;2023-07-28T05:40:56;99789.28;;;16.87;100.00
76687;BME280;65615;47.378;19.344;2023-07-28T05:45:01;99801.16;;;17.05;100.00
76687;BME280;65615;47.378;19.344;2023-07-28T05:49:06;99801.50;;;17.28;100.00
76687;BME280;65615;47.378;19.344;2023-07-28T05:53:10;99794.84;;;17.50;100.00
76687;BME280;65615;47.378;19.344;2023-07-28T05:57:13;99794.28;;;17.79;100.00
76687;BME280;65615;47.378;19.344;2023-07-28T06:01:16;99807.03;;;18.08;100.00
76687;BME280;65615;47.378;19.344;2023-07-28T06:05:25;99802.63;;;18.20;100.00
76687;BME280;65615;47.378;19.344;2023-07-28T06:09:29;99810.66;;;18.51;100.00
76687;BME280;65615;47.378;19.344;2023-07-28T06:13:32;99825.75;;;18.64;100.00
76687;BME280;65615;47.378;19.344;2023-07-28T06:17:36;99829.41;;;18.70;100.00
76687;BME280;65615;47.378;19.344;2023-07-28T06:21:39;99836.19;;;18.90;100.00
76687;BME280;65615;47.378;19.344;2023-07-28T06:25:42;99826.50;;;19.14;100.00
76687;BME280;65615;47.378;19.344;2023-07-28T06:29:47;99836.59;;;19.48;100.00
76687;BME280;65615;47.378;19.344;2023-07-28T06:33:49;99834.13;;;19.94;100.00
76687;BME280;65615;47.378;19.344;2023-07-28T06:37:53;99831.50;;;20.36;99.33
76687;BME280;65615;47.378;19.344;2023-07-28T06:41:56;99835.94;;;20.53;95.26
76687;BME280;65615;47.378;19.344;2023-07-28T06:46:01;99827.78;;;20.83;95.04
76687;BME280;65615;47.378;19.344;2023-07-28T06:50:04;99823.34;;;21.00;91.91
76687;BME280;65615;47.378;19.344;2023-07-28T06:54:08;99816.13;;;21.12;88.47
76687;BME280;65615;47.378;19.344;2023-07-28T06:58:15;99812.59;;;21.23;87.13
76687;BME280;65615;47.378;19.344;2023-07-28T07:02:18;99823.25;;;21.18;83.98
76687;BME280;65615;47.378;19.344;2023-07-28T07:06:23;99829.34;;;21.02;85.48
76687;BME280;65615;47.378;19.344;2023-07-28T07:10:26;99821.72;;;21.22;84.08
76687;BME280;65615;47.378;19.344;2023-07-28T07:14:29;99811.25;;;21.88;82.06
76687;BME280;65615;47.378;19.344;2023-07-28T07:18:32;99814.22;;;22.37;77.91
76687;BME280;65615;47.378;19.344;2023-07-28T07:22:35;99806.06;;;22.81;73.81
76687;BME280;65615;47.378;19.344;2023-07-28T07:26:40;99800.97;;;22.85;73.57
76687;BME280;65615;47.378;19.344;2023-07-28T07:30:43;99802.31;;;22.83;71.18
76687;BME280;65615;47.378;19.344;2023-07-28T07:34:46;99804.59;;;22.74;69.30
76687;BME280;65615;47.378;19.344;2023-07-28T07:38:49;99804.91;;;22.94;67.13
76687;BME280;65615;47.378;19.344;2023-07-28T07:42:52;99794.81;;;23.06;67.24
76687;BME280;65615;47.378;19.344;2023-07-28T07:47:01;99801.63;;;22.92;68.14
76687;BME280;65615;47.378;19.344;2023-07-28T07:51:17;99801.91;;;23.12;68.14
76687;BME280;65615;47.378;19.344;2023-07-28T07:55:21;99796.94;;;23.96;64.54
76687;BME280;65615;47.378;19.344;2023-07-28T07:59:24;99798.09;;;23.51;62.26
76687;BME280;65615;47.378;19.344;2023-07-28T08:03:30;99806.16;;;23.73;62.22
76687;BME280;65615;47.378;19.344;2023-07-28T08:07:35;99790.00;;;23.51;62.67
76687;BME280;65615;47.378;19.344;2023-07-28T08:11:39;99786.88;;;23.59;62.50
76687;BME280;65615;47.378;19.344;2023-07-28T08:15:43;99789.16;;;23.99;62.75
76687;BME280;65615;47.378;19.344;2023-07-28T08:19:46;99781.22;;;23.88;62.09
76687;BME280;65615;47.378;19.344;2023-07-28T08:23:49;99782.47;;;23.53;64.00
76687;BME280;65615;47.378;19.344;2023-07-28T08:27:52;99781.47;;;23.59;65.42
76687;BME280;65615;47.378;19.344;2023-07-28T08:31:55;99777.22;;;24.54;62.99
76687;BME280;65615;47.378;19.344;2023-07-28T08:35:58;99781.44;;;24.76;60.91
76687;BME280;65615;47.378;19.344;2023-07-28T08:40:06;99773.81;;;24.68;62.49
76687;BME280;65615;47.378;19.344;2023-07-28T08:44:10;99768.91;;;24.65;61.42
76687;BME280;65615;47.378;19.344;2023-07-28T08:48:13;99767.72;;;24.88;61.71
76687;BME280;65615;47.378;19.344;2023-07-28T08:52:17;99764.56;;;25.06;60.49
76687;BME280;65615;47.378;19.344;2023-07-28T08:56:20;99766.72;;;25.76;57.78
76687;BME280;65615;47.378;19.344;2023-07-28T09:00:24;99768.69;;;25.18;56.63
76687;BME280;65615;47.378;19.344;2023-07-28T09:04:28;99762.03;;;24.84;57.18
76687;BME280;65615;47.378;19.344;2023-07-28T09:08:31;99750.59;;;25.19;55.38
76687;BME280;65615;47.378;19.344;2023-07-28T09:12:34;99744.50;;;25.54;55.62
76687;BME280;65615;47.378;19.344;2023-07-28T09:16:37;99752.66;;;25.79;55.29
76687;BME280;65615;47.378;19.344;2023-07-28T09:20:41;99733.16;;;25.67;54.12
76687;BME280;65615;47.378;19.344;2023-07-28T09:24:44;99735.38;;;26.05;53.67
76687;BME280;65615;47.378;19.344;2023-07-28T09:28:48;99733.44;;;25.70;52.17
76687;BME280;65615;47.378;19.344;2023-07-28T09:32:53;99731.56;;;25.91;51.98
76687;BME280;65615;47.378;19.344;2023-07-28T09:36:57;99726.91;;;25.56;53.21
76687;BME280;65615;47.378;19.344;2023-07-28T09:41:00;99719.91;;;25.85;52.81
76687;BME280;65615;47.378;19.344;2023-07-28T09:45:05;99709.06;;;26.51;52.74
76687;BME280;65615;47.378;19.344;2023-07-28T09:49:15;99715.53;;;26.60;50.75
76687;BME280;65615;47.378;19.344;2023-07-28T09:53:18;99702.78;;;26.85;51.89
76687;BME280;65615;47.378;19.344;2023-07-28T09:57:23;99714.03;;;27.08;51.83
76687;BME280;65615;47.378;19.344;2023-07-28T10:01:28;99705.16;;;27.51;50.41
76687;BME280;65615;47.378;19.344;2023-07-28T10:05:32;99701.34;;;27.52;49.92
76687;BME280;65615;47.378;19.344;2023-07-28T10:09:36;99696.03;;;27.37;50.85
76687;BME280;65615;47.378;19.344;2023-07-28T10:13:42;99702.47;;;27.46;50.30
76687;BME280;65615;47.378;19.344;2023-07-28T10:17:50;99701.94;;;27.49;49.93
76687;BME280;65615;47.378;19.344;2023-07-28T10:22:22;99699.06;;;28.36;49.60
76687;BME280;65615;47.378;19.344;2023-07-28T10:26:38;99695.28;;;28.32;49.64
76687;BME280;65615;47.378;19.344;2023-07-28T10:30:53;99701.06;;;27.97;48.77
76687;BME280;65615;47.378;19.344;2023-07-28T10:35:24;99690.41;;;28.06;48.55
76687;BME280;65615;47.378;19.344;2023-07-28T10:39:24;99683.47;;;28.47;48.19
76687;BME280;65615;47.378;19.344;2023-07-28T10:43:28;99684.94;;;28.87;47.05
76687;BME280;65615;47.378;19.344;2023-07-28T10:47:32;99695.31;;;29.27;47.41
76687;BME280;65615;47.378;19.344;2023-07-28T10:51:35;99697.66;;;28.91;46.40
76687;BME280;65615;47.378;19.344;2023-07-28T10:55:38;99686.19;;;28.47;47.92
76687;BME280;65615;47.378;19.344;2023-07-28T10:59:41;99685.16;;;29.51;45.39
76687;BME280;65615;47.378;19.344;2023-07-28T11:03:45;99682.22;;;29.29;45.70
76687;BME280;65615;47.378;19.344;2023-07-28T11:07:48;99688.25;;;29.26;46.13
76687;BME280;65615;47.378;19.344;2023-07-28T11:11:52;99684.94;;;28.87;46.12
76687;BME280;65615;47.378;19.344;2023-07-28T11:15:55;99688.47;;;29.29;44.76
76687;BME280;65615;47.378;19.344;2023-07-28T11:19:58;99685.09;;;29.37;45.39
76687;BME280;65615;47.378;19.344;2023-07-28T11:24:01;99680.87;;;29.82;44.17
76687;BME280;65615;47.378;19.344;2023-07-28T11:28:04;99683.09;;;29.62;44.11
76687;BME280;65615;47.378;19.344;2023-07-28T11:32:09;99689.84;;;29.64;45.00
76687;BME280;65615;47.378;19.344;2023-07-28T11:36:12;99667.06;;;29.60;45.05
76687;BME280;65615;47.378;19.344;2023-07-28T11:40:23;99676.69;;;29.71;44.59
76687;BME280;65615;47.378;19.344;2023-07-28T11:44:28;99670.00;;;29.45;44.20
76687;BME280;65615;47.378;19.344;2023-07-28T11:48:31;99672.03;;;29.90;43.98
76687;BME280;65615;47.378;19.344;2023-07-28T11:52:36;99664.59;;;30.69;43.41
76687;BME280;65615;47.378;19.344;2023-07-28T11:56:42;99668.53;;;30.36;44.62
76687;BME280;65615;47.378;19.344;2023-07-28T12:00:46;99670.75;;;30.01;45.40
76687;BME280;65615;47.378;19.344;2023-07-28T12:04:49;99646.72;;;30.63;43.58
76687;BME280;65615;47.378;19.344;2023-07-28T12:09:05;99649.03;;;30.96;43.12
76687;BME280;65615;47.378;19.344;2023-07-28T12:13:12;99643.91;;;30.68;43.78
76687;BME280;65615;47.378;19.344;2023-07-28T12:17:19;99648.97;;;30.88;43.29
76687;BME280;65615;47.378;19.344;2023-07-28T12:21:25;99636.22;;;30.70;43.18
76687;BME280;65615;47.378;19.344;2023-07-28T12:25:29;99640.00;;;31.23;42.35
76687;BME280;65615;47.378;19.344;2023-07-28T12:29:32;99635.25;;;31.15;41.36
76687;BME280;65615;47.378;19.344;2023-07-28T12:33:36;99639.44;;;30.99;41.34
76687;BME280;65615;47.378;19.344;2023-07-28T12:37:41;99629.75;;;30.93;42.36
76687;BME280;65615;47.378;19.344;2023-07-28T12:41:47;99638.31;;;31.49;40.07
76687;BME280;65615;47.378;19.344;2023-07-28T12:46:10;99624.09;;;30.35;43.12
76687;BME280;65615;47.378;19.344;2023-07-28T12:50:13;99615.56;;;31.04;42.65
76687;BME280;65615;47.378;19.344;2023-07-28T12:54:19;99633.94;;;31.26;40.92
76687;BME280;65615;47.378;19.344;2023-07-28T12:58:24;99609.75;;;31.55;42.01
76687;BME280;65615;47.378;19.344;2023-07-28T13:02:42;99616.00;;;30.71;41.35
76687;BME280;65615;47.378;19.344;2023-07-28T13:06:45;99617.84;;;31.82;39.11
76687;BME280;65615;47.378;19.344;2023-07-28T13:10:48;99609.78;;;30.84;42.17
76687;BME280;65615;47.378;19.344;2023-07-28T13:14:53;99602.06;;;31.57;41.73
76687;BME280;65615;47.378;19.344;2023-07-28T13:18:56;99596.31;;;31.23;40.90
76687;BME280;65615;47.378;19.344;2023-07-28T13:22:59;99609.28;;;31.18;41.52
76687;BME280;65615;47.378;19.344;2023-07-28T13:27:03;99609.16;;;30.73;43.30
76687;BME280;65615;47.378;19.344;2023-07-28T13:31:05;99611.66;;;30.83;43.88
76687;BME280;65615;47.378;19.344;2023-07-28T13:35:09;99610.56;;;30.71;45.53
76687;BME280;65615;47.378;19.344;2023-07-28T13:39:12;99602.00;;;31.13;43.66
76687;BME280;65615;47.378;19.344;2023-07-28T13:43:15;99627.69;;;31.12;42.62
76687;BME280;65615;47.378;19.344;2023-07-28T13:47:19;99624.47;;;31.10;42.83
76687;BME280;65615;47.378;19.344;2023-07-28T13:51:22;99609.38;;;31.26;42.11
76687;BME280;65615;47.378;19.344;2023-07-28T13:55:45;99599.78;;;31.15;42.39
76687;BME280;65615;47.378;19.344;2023-07-28T13:59:59;99602.50;;;30.66;43.27
76687;BME280;65615;47.378;19.344;2023-07-28T14:04:02;99615.94;;;29.89;45.19
76687;BME280;65615;47.378;19.344;2023-07-28T14:08:05;99606.31;;;29.78;46.22
76687;BME280;65615;47.378;19.344;2023-07-28T14:12:08;99608.84;;;29.24;47.13
76687;BME280;65615;47.378;19.344;2023-07-28T14:16:12;99603.59;;;28.67;48.55
76687;BME280;65615;47.378;19.344;2023-07-28T14:20:16;99601.06;;;28.75;49.17
76687;BME280;65615;47.378;19.344;2023-07-28T14:24:19;99593.91;;;28.61;48.63
76687;BME280;65615;47.378;19.344;2023-07-28T14:28:23;99597.22;;;28.76;48.07
76687;BME280;65615;47.378;19.344;2023-07-28T14:32:26;99589.41;;;29.12;48.10
76687;BME280;65615;47.378;19.344;2023-07-28T14:36:29;99581.44;;;28.97;48.25
76687;BME280;65615;47.378;19.344;2023-07-28T14:40:32;99579.50;;;29.53;46.83
